sensor_id;sensor_type;location;lat;lon;timestamp;P1;durP1;ratioP1;P2;durP2;ratioP2
17763;SDS011;22245;52.832;13.816;2023-03-05T00:00:12;5.77;;;1.90;;
17763;SDS011;22245;52.832;13.816;2023-03-05T00:03:35;5.07;;;1.83;;
17763;SDS011;22245;52.832;13.816;2023-03-05T00:06:59;4.73;;;2.20;;
17763;SDS011;22245;52.832;13.816;2023-03-05T00:10:20;6.07;;;2.07;;
17763;SDS011;22245;52.832;13.816;2023-03-05T00:13:42;3.23;;;1.80;;
17763;SDS011;22245;52.832;13.816;2023-03-05T00:17:04;6.20;;;2.40;;
17763;SDS011;22245;52.832;13.816;2023-03-05T00:20:26;4.17;;;1.80;;
17763;SDS011;22245;52.832;13.816;2023-03-05T00:23:49;6.27;;;1.97;;
17763;SDS011;22245;52.832;13.816;2023-03-05T00:27:11;4.97;;;2.30;;
17763;SDS011;22245;52.832;13.816;2023-03-05T00:30:34;5.83;;;2.30;;
17763;SDS011;22245;52.832;13.816;2023-03-05T00:33:56;5.73;;;2.67;;
17763;SDS011;22245;52.832;13.816;2023-03-05T00:37:20;5.00;;;2.70;;
17763;SDS011;22245;52.832;13.816;2023-03-05T00:40:43;5.73;;;2.90;;
17763;SDS011;22245;52.832;13.816;2023-03-05T00:44:05;6.40;;;3.20;;
17763;SDS011;22245;52.832;13.816;2023-03-05T00:47:27;8.60;;;3.40;;
17763;SDS011;22245;52.832;13.816;2023-03-05T00:50:49;7.57;;;3.27;;
17763;SDS011;22245;52.832;13.816;2023-03-05T00:54:11;11.33;;;3.27;;
17763;SDS011;22245;52.832;13.816;2023-03-05T00:57:34;6.20;;;3.30;;
17763;SDS011;22245;52.832;13.816;2023-03-05T01:00:56;10.13;;;3.80;;
17763;SDS011;22245;52.832;13.816;2023-03-05T01:04:19;7.20;;;3.23;;
17763;SDS011;22245;52.832;13.816;2023-03-05T01:07:41;6.87;;;2.60;;
17763;SDS011;22245;52.832;13.816;2023-03-05T01:11:03;7.37;;;2.80;;
17763;SDS011;22245;52.832;13.816;2023-03-05T01:14:27;9.97;;;2.93;;
17763;SDS011;22245;52.832;13.816;2023-03-05T01:17:49;7.67;;;3.03;;
17763;SDS011;22245;52.832;13.816;2023-03-05T01:21:11;7.53;;;2.80;;
17763;SDS011;22245;52.832;13.816;2023-03-05T01:24:33;7.10;;;2.67;;
17763;SDS011;22245;52.832;13.816;2023-03-05T01:27:55;5.30;;;2.33;;
17763;SDS011;22245;52.832;13.816;2023-03-05T01:31:18;7.87;;;3.10;;
17763;SDS011;22245;52.832;13.816;2023-03-05T01:34:39;7.23;;;2.67;;
17763;SDS011;22245;52.832;13.816;2023-03-05T01:38:01;9.43;;;3.10;;
17763;SDS011;22245;52.832;13.816;2023-03-05T01:41:23;6.53;;;2.80;;
17763;SDS011;22245;52.832;13.816;2023-03-05T01:44:58;11.67;;;3.17;;
17763;SDS011;22245;52.832;13.816;2023-03-05T01:48:22;10.33;;;3.23;;
17763;SDS011;22245;52.832;13.816;2023-03-05T01:51:49;8.03;;;3.10;;
17763;SDS011;22245;52.832;13.816;2023-03-05T01:55:17;6.17;;;2.60;;
17763;SDS011;22245;52.832;13.816;2023-03-05T01:58:42;11.70;;;2.97;;
17763;SDS011;22245;52.832;13.816;2023-03-05T02:02:05;12.20;;;2.97;;
17763;SDS011;22245;52.832;13.816;2023-03-05T02:05:29;8.40;;;3.07;;
17763;SDS011;22245;52.832;13.816;2023-03-05T02:08:52;13.30;;;3.00;;
17763;SDS011;22245;52.832;13.816;2023-03-05T02:12:14;9.40;;;2.67;;
17763;SDS011;22245;52.832;13.816;2023-03-05T02:15:37;11.63;;;3.03;;
17763;SDS011;22245;52.832;13.816;2023-03-05T02:19:00;10.33;;;2.90;;
17763;SDS011;22245;52.832;13.816;2023-03-05T02:22:23;11.27;;;2.70;;
17763;SDS011;22245;52.832;13.816;2023-03-05T02:25:45;10.93;;;2.70;;
17763;SDS011;22245;52.832;13.816;2023-03-05T02:29:07;9.83;;;2.23;;
17763;SDS011;22245;52.832;13.816;2023-03-05T02:32:30;9.80;;;2.90;;
17763;SDS011;22245;52.832;13.816;2023-03-05T02:35:52;13.83;;;2.30;;
17763;SDS011;22245;52.832;13.816;2023-03-05T02:39:15;8.13;;;2.10;;
17763;SDS011;22245;52.832;13.816;2023-03-05T02:42:37;11.53;;;2.20;;
17763;SDS011;22245;52.832;13.816;2023-03-05T02:46:00;6.70;;;2.10;;
17763;SDS011;22245;52.832;13.816;2023-03-05T02:49:22;7.80;;;1.70;;
17763;SDS011;22245;52.832;13.816;2023-03-05T02:52:43;10.27;;;2.23;;
17763;SDS011;22245;52.832;13.816;2023-03-05T02:56:08;5.33;;;1.53;;
17763;SDS011;22245;52.832;13.816;2023-03-05T02:59:30;10.77;;;2.67;;
17763;SDS011;22245;52.832;13.816;2023-03-05T03:02:52;8.00;;;1.77;;
17763;SDS011;22245;52.832;13.816;2023-03-05T03:06:14;7.53;;;1.73;;
17763;SDS011;22245;52.832;13.816;2023-03-05T03:09:36;7.93;;;2.53;;
17763;SDS011;22245;52.832;13.816;2023-03-05T03:12:59;9.10;;;1.90;;
17763;SDS011;22245;52.832;13.816;2023-03-05T03:16:20;9.20;;;1.90;;
17763;SDS011;22245;52.832;13.816;2023-03-05T03:19:42;8.30;;;1.50;;
17763;SDS011;22245;52.832;13.816;2023-03-05T03:23:04;9.90;;;2.17;;
17763;SDS011;22245;52.832;13.816;2023-03-05T03:26:26;5.43;;;2.07;;
17763;SDS011;22245;52.832;13.816;2023-03-05T03:29:51;10.03;;;1.80;;
17763;SDS011;22245;52.832;13.816;2023-03-05T03:33:13;10.43;;;1.97;;
17763;SDS011;22245;52.832;13.816;2023-03-05T03:36:37;7.13;;;1.60;;
17763;SDS011;22245;52.832;13.816;2023-03-05T03:39:59;11.67;;;2.17;;
17763;SDS011;22245;52.832;13.816;2023-03-05T03:43:21;6.00;;;1.50;;
17763;SDS011;22245;52.832;13.816;2023-03-05T03:46:45;7.27;;;1.77;;
17763;SDS011;22245;52.832;13.816;2023-03-05T03:50:08;6.87;;;1.50;;
17763;SDS011;22245;52.832;13.816;2023-03-05T03:53:31;9.33;;;1.93;;
17763;SDS011;22245;52.832;13.816;2023-03-05T03:56:52;11.80;;;2.10;;
17763;SDS011;22245;52.832;13.816;2023-03-05T04:00:14;8.77;;;2.00;;
17763;SDS011;22245;52.832;13.816;2023-03-05T04:03:38;11.17;;;2.30;;
17763;SDS011;22245;52.832;13.816;2023-03-05T04:07:00;4.67;;;1.80;;
17763;SDS011;22245;52.832;13.816;2023-03-05T04:10:21;4.70;;;1.30;;
17763;SDS011;22245;52.832;13.816;2023-03-05T04:13:43;8.37;;;1.60;;
17763;SDS011;22245;52.832;13.816;2023-03-05T04:17:04;5.67;;;2.03;;
17763;SDS011;22245;52.832;13.816;2023-03-05T04:20:27;9.10;;;2.63;;
17763;SDS011;22245;52.832;13.816;2023-03-05T04:23:49;14.57;;;3.33;;
17763;SDS011;22245;52.832;13.816;2023-03-05T04:27:11;5.57;;;2.07;;
17763;SDS011;22245;52.832;13.816;2023-03-05T04:30:33;5.67;;;1.90;;
17763;SDS011;22245;52.832;13.816;2023-03-05T04:33:54;4.37;;;1.70;;
17763;SDS011;22245;52.832;13.816;2023-03-05T04:37:17;4.63;;;1.90;;
17763;SDS011;22245;52.832;13.816;2023-03-05T04:40:39;4.77;;;1.33;;
17763;SDS011;22245;52.832;13.816;2023-03-05T04:44:00;9.57;;;1.73;;
17763;SDS011;22245;52.832;13.816;2023-03-05T04:47:22;6.53;;;1.97;;
17763;SDS011;22245;52.832;13.816;2023-03-05T04:50:44;5.63;;;1.40;;
17763;SDS011;22245;52.832;13.816;2023-03-05T04:54:07;6.50;;;1.73;;
17763;SDS011;22245;52.832;13.816;2023-03-05T04:57:28;5.30;;;1.47;;
17763;SDS011;22245;52.832;13.816;2023-03-05T05:00:50;10.07;;;2.30;;
17763;SDS011;22245;52.832;13.816;2023-03-05T05:04:12;4.60;;;1.07;;
17763;SDS011;22245;52.832;13.816;2023-03-05T05:07:34;6.63;;;1.50;;
17763;SDS011;22245;52.832;13.816;2023-03-05T05:10:58;7.83;;;1.70;;
17763;SDS011;22245;52.832;13.816;2023-03-05T05:14:21;8.27;;;1.60;;
17763;SDS011;22245;52.832;13.816;2023-03-05T05:17:43;6.97;;;1.53;;
17763;SDS011;22245;52.832;13.816;2023-03-05T05:21:08;4.23;;;1.20;;
17763;SDS011;22245;52.832;13.816;2023-03-05T05:24:31;6.37;;;1.33;;
17763;SDS011;22245;52.832;13.816;2023-03-05T05:27:55;7.67;;;1.33;;
17763;SDS011;22245;52.832;13.816;2023-03-05T05:31:17;7.77;;;1.40;;
17763;SDS011;22245;52.832;13.816;2023-03-05T05:34:40;7.50;;;1.43;;
17763;SDS011;22245;52.832;13.816;2023-03-05T05:38:02;6.90;;;1.83;;
17763;SDS011;22245;52.832;13.816;2023-03-05T05:41:23;8.57;;;2.73;;
17763;SDS011;22245;52.832;13.816;2023-03-05T05:44:47;6.93;;;1.43;;
17763;SDS011;22245;52.832;13.816;2023-03-05T05:48:09;6.20;;;1.50;;
17763;SDS011;22245;52.832;13.816;2023-03-05T05:51:31;8.00;;;1.40;;
17763;SDS011;22245;52.832;13.816;2023-03-05T05:54:53;5.07;;;1.30;;
17763;SDS011;22245;52.832;13.816;2023-03-05T05:58:15;5.23;;;1.30;;
17763;SDS011;22245;52.832;13.816;2023-03-05T06:01:38;6.33;;;1.53;;
17763;SDS011;22245;52.832;13.816;2023-03-05T06:05:00;3.97;;;1.40;;
17763;SDS011;22245;52.832;13.816;2023-03-05T06:08:21;6.17;;;1.40;;
17763;SDS011;22245;52.832;13.816;2023-03-05T06:11:43;5.13;;;1.43;;
17763;SDS011;22245;52.832;13.816;2023-03-05T06:15:05;5.50;;;1.43;;
17763;SDS011;22245;52.832;13.816;2023-03-05T06:18:29;9.87;;;1.70;;
17763;SDS011;22245;52.832;13.816;2023-03-05T06:21:52;5.83;;;1.67;;
17763;SDS011;22245;52.832;13.816;2023-03-05T06:25:14;9.63;;;1.70;;
17763;SDS011;22245;52.832;13.816;2023-03-05T06:28:36;6.97;;;1.47;;
17763;SDS011;22245;52.832;13.816;2023-03-05T06:31:57;6.53;;;1.57;;
17763;SDS011;22245;52.832;13.816;2023-03-05T06:35:20;6.63;;;1.40;;
17763;SDS011;22245;52.832;13.816;2023-03-05T06:38:42;8.57;;;1.53;;
17763;SDS011;22245;52.832;13.816;2023-03-05T06:42:05;5.67;;;1.23;;
17763;SDS011;22245;52.832;13.816;2023-03-05T06:45:27;8.93;;;1.50;;
17763;SDS011;22245;52.832;13.816;2023-03-05T06:48:49;7.63;;;1.30;;
17763;SDS011;22245;52.832;13.816;2023-03-05T06:52:13;7.37;;;1.63;;
17763;SDS011;22245;52.832;13.816;2023-03-05T06:55:35;5.70;;;1.57;;
17763;SDS011;22245;52.832;13.816;2023-03-05T06:58:59;7.53;;;1.33;;
17763;SDS011;22245;52.832;13.816;2023-03-05T07:02:20;12.53;;;1.50;;
17763;SDS011;22245;52.832;13.816;2023-03-05T07:05:42;3.43;;;1.27;;
17763;SDS011;22245;52.832;13.816;2023-03-05T07:09:06;9.17;;;1.80;;
17763;SDS011;22245;52.832;13.816;2023-03-05T07:12:30;8.03;;;2.00;;
17763;SDS011;22245;52.832;13.816;2023-03-05T07:15:52;11.10;;;1.33;;
17763;SDS011;22245;52.832;13.816;2023-03-05T07:19:14;8.30;;;1.53;;
17763;SDS011;22245;52.832;13.816;2023-03-05T07:22:36;10.27;;;1.70;;
17763;SDS011;22245;52.832;13.816;2023-03-05T07:26:00;5.73;;;1.60;;
17763;SDS011;22245;52.832;13.816;2023-03-05T07:29:23;6.97;;;1.23;;
17763;SDS011;22245;52.832;13.816;2023-03-05T07:32:46;4.87;;;1.30;;
17763;SDS011;22245;52.832;13.816;2023-03-05T07:36:08;7.37;;;1.57;;
17763;SDS011;22245;52.832;13.816;2023-03-05T07:39:30;9.47;;;3.20;;
17763;SDS011;22245;52.832;13.816;2023-03-05T07:42:53;3.17;;;1.50;;
17763;SDS011;22245;52.832;13.816;2023-03-05T07:46:23;7.33;;;1.90;;
17763;SDS011;22245;52.832;13.816;2023-03-05T07:49:47;9.57;;;1.53;;
17763;SDS011;22245;52.832;13.816;2023-03-05T07:53:10;7.00;;;2.20;;
17763;SDS011;22245;52.832;13.816;2023-03-05T07:56:33;5.33;;;1.50;;
17763;SDS011;22245;52.832;13.816;2023-03-05T07:59:57;4.90;;;1.40;;
17763;SDS011;22245;52.832;13.816;2023-03-05T08:03:19;8.37;;;1.67;;
17763;SDS011;22245;52.832;13.816;2023-03-05T08:06:41;6.43;;;1.33;;
17763;SDS011;22245;52.832;13.816;2023-03-05T08:10:03;10.67;;;1.77;;
17763;SDS011;22245;52.832;13.816;2023-03-05T08:13:26;14.80;;;3.43;;
17763;SDS011;22245;52.832;13.816;2023-03-05T08:16:49;7.37;;;1.67;;
17763;SDS011;22245;52.832;13.816;2023-03-05T08:20:12;5.87;;;1.80;;
17763;SDS011;22245;52.832;13.816;2023-03-05T08:23:34;8.93;;;2.00;;
17763;SDS011;22245;52.832;13.816;2023-03-05T08:26:55;6.40;;;1.67;;
17763;SDS011;22245;52.832;13.816;2023-03-05T08:30:19;4.30;;;1.53;;
17763;SDS011;22245;52.832;13.816;2023-03-05T08:33:47;9.27;;;2.60;;
17763;SDS011;22245;52.832;13.816;2023-03-05T08:37:09;11.43;;;1.80;;
17763;SDS011;22245;52.832;13.816;2023-03-05T08:40:31;7.40;;;1.80;;
17763;SDS011;22245;52.832;13.816;2023-03-05T08:43:53;12.90;;;1.77;;
17763;SDS011;22245;52.832;13.816;2023-03-05T08:47:15;11.60;;;3.00;;
17763;SDS011;22245;52.832;13.816;2023-03-05T08:50:39;5.33;;;2.60;;
17763;SDS011;22245;52.832;13.816;2023-03-05T08:54:01;8.90;;;3.13;;
17763;SDS011;22245;52.832;13.816;2023-03-05T08:57:26;11.63;;;3.20;;
17763;SDS011;22245;52.832;13.816;2023-03-05T09:00:48;16.43;;;4.67;;
17763;SDS011;22245;52.832;13.816;2023-03-05T09:04:10;10.43;;;3.23;;
17763;SDS011;22245;52.832;13.816;2023-03-05T09:07:33;6.57;;;2.30;;
17763;SDS011;22245;52.832;13.816;2023-03-05T09:10:57;7.17;;;2.17;;
17763;SDS011;22245;52.832;13.816;2023-03-05T09:14:18;15.83;;;3.33;;
17763;SDS011;22245;52.832;13.816;2023-03-05T09:17:43;6.40;;;2.63;;
17763;SDS011;22245;52.832;13.816;2023-03-05T09:21:05;7.67;;;2.00;;
17763;SDS011;22245;52.832;13.816;2023-03-05T09:24:30;6.73;;;1.50;;
17763;SDS011;22245;52.832;13.816;2023-03-05T09:27:51;6.83;;;2.37;;
17763;SDS011;22245;52.832;13.816;2023-03-05T09:31:13;3.40;;;1.83;;
17763;SDS011;22245;52.832;13.816;2023-03-05T09:34:35;3.80;;;1.93;;
17763;SDS011;22245;52.832;13.816;2023-03-05T09:37:57;4.80;;;2.07;;
17763;SDS011;22245;52.832;13.816;2023-03-05T09:41:25;5.23;;;1.40;;
17763;SDS011;22245;52.832;13.816;2023-03-05T09:45:00;7.13;;;1.70;;
17763;SDS011;22245;52.832;13.816;2023-03-05T09:48:37;6.63;;;1.40;;
17763;SDS011;22245;52.832;13.816;2023-03-05T09:52:11;6.10;;;1.40;;
17763;SDS011;22245;52.832;13.816;2023-03-05T09:55:38;4.13;;;1.33;;
17763;SDS011;22245;52.832;13.816;2023-03-05T09:59:09;4.50;;;1.10;;
17763;SDS011;22245;52.832;13.816;2023-03-05T10:02:40;7.10;;;1.67;;
17763;SDS011;22245;52.832;13.816;2023-03-05T10:06:10;8.87;;;2.33;;
17763;SDS011;22245;52.832;13.816;2023-03-05T10:09:40;9.47;;;2.53;;
17763;SDS011;22245;52.832;13.816;2023-03-05T10:13:09;4.33;;;1.30;;
17763;SDS011;22245;52.832;13.816;2023-03-05T10:16:48;6.03;;;1.27;;
17763;SDS011;22245;52.832;13.816;2023-03-05T10:20:24;3.63;;;1.80;;
17763;SDS011;22245;52.832;13.816;2023-03-05T10:23:58;4.10;;;1.17;;
17763;SDS011;22245;52.832;13.816;2023-03-05T10:27:27;2.07;;;1.03;;
17763;SDS011;22245;52.832;13.816;2023-03-05T10:31:01;6.47;;;1.63;;
17763;SDS011;22245;52.832;13.816;2023-03-05T10:34:34;5.50;;;0.97;;
17763;SDS011;22245;52.832;13.816;2023-03-05T10:38:12;6.00;;;1.37;;
17763;SDS011;22245;52.832;13.816;2023-03-05T10:41:46;4.03;;;1.20;;
17763;SDS011;22245;52.832;13.816;2023-03-05T10:45:16;2.40;;;1.03;;
17763;SDS011;22245;52.832;13.816;2023-03-05T10:48:42;5.23;;;1.00;;
17763;SDS011;22245;52.832;13.816;2023-03-05T10:52:10;3.73;;;1.30;;
17763;SDS011;22245;52.832;13.816;2023-03-05T10:55:37;3.63;;;0.77;;
17763;SDS011;22245;52.832;13.816;2023-03-05T10:58:59;4.87;;;0.93;;
17763;SDS011;22245;52.832;13.816;2023-03-05T11:02:21;4.77;;;0.87;;
17763;SDS011;22245;52.832;13.816;2023-03-05T11:05:44;2.53;;;0.90;;
17763;SDS011;22245;52.832;13.816;2023-03-05T11:12:51;3.63;;;0.90;;
17763;SDS011;22245;52.832;13.816;2023-03-05T11:16:16;3.40;;;1.47;;
17763;SDS011;22245;52.832;13.816;2023-03-05T11:19:40;4.27;;;1.00;;
17763;SDS011;22245;52.832;13.816;2023-03-05T11:23:03;4.80;;;1.83;;
17763;SDS011;22245;52.832;13.816;2023-03-05T11:26:28;1.70;;;1.03;;
17763;SDS011;22245;52.832;13.816;2023-03-05T11:29:50;4.57;;;1.77;;
17763;SDS011;22245;52.832;13.816;2023-03-05T11:33:13;4.27;;;1.17;;
17763;SDS011;22245;52.832;13.816;2023-03-05T11:36:39;3.13;;;1.40;;
17763;SDS011;22245;52.832;13.816;2023-03-05T11:40:13;7.20;;;1.27;;
17763;SDS011;22245;52.832;13.816;2023-03-05T11:43:41;7.87;;;1.37;;
17763;SDS011;22245;52.832;13.816;2023-03-05T11:47:09;4.73;;;1.00;;
17763;SDS011;22245;52.832;13.816;2023-03-05T11:50:38;2.77;;;1.03;;
17763;SDS011;22245;52.832;13.816;2023-03-05T11:54:05;3.80;;;1.10;;
17763;SDS011;22245;52.832;13.816;2023-03-05T11:57:35;2.63;;;0.80;;
17763;SDS011;22245;52.832;13.816;2023-03-05T12:01:05;5.67;;;1.33;;
17763;SDS011;22245;52.832;13.816;2023-03-05T12:04:31;1.87;;;0.87;;
17763;SDS011;22245;52.832;13.816;2023-03-05T12:07:56;4.33;;;1.43;;
17763;SDS011;22245;52.832;13.816;2023-03-05T12:11:19;5.33;;;1.27;;
17763;SDS011;22245;52.832;13.816;2023-03-05T12:14:47;4.90;;;1.17;;
17763;SDS011;22245;52.832;13.816;2023-03-05T12:18:17;3.73;;;0.77;;
17763;SDS011;22245;52.832;13.816;2023-03-05T12:21:47;2.27;;;0.90;;
17763;SDS011;22245;52.832;13.816;2023-03-05T12:25:16;4.27;;;0.70;;
17763;SDS011;22245;52.832;13.816;2023-03-05T12:28:53;2.33;;;0.70;;
17763;SDS011;22245;52.832;13.816;2023-03-05T12:36:36;4.23;;;1.10;;
17763;SDS011;22245;52.832;13.816;2023-03-05T12:40:00;4.73;;;1.07;;
17763;SDS011;22245;52.832;13.816;2023-03-05T12:43:26;1.87;;;0.90;;
17763;SDS011;22245;52.832;13.816;2023-03-05T12:47:14;3.00;;;1.10;;
17763;SDS011;22245;52.832;13.816;2023-03-05T12:50:48;3.30;;;1.20;;
17763;SDS011;22245;52.832;13.816;2023-03-05T12:54:27;4.90;;;1.10;;
17763;SDS011;22245;52.832;13.816;2023-03-05T12:57:52;3.33;;;1.20;;
17763;SDS011;22245;52.832;13.816;2023-03-05T13:01:22;2.33;;;0.77;;
17763;SDS011;22245;52.832;13.816;2023-03-05T13:04:56;3.67;;;0.90;;
17763;SDS011;22245;52.832;13.816;2023-03-05T13:08:21;3.73;;;1.20;;
17763;SDS011;22245;52.832;13.816;2023-03-05T13:11:46;2.97;;;0.80;;
17763;SDS011;22245;52.832;13.816;2023-03-05T13:15:12;2.90;;;0.90;;
17763;SDS011;22245;52.832;13.816;2023-03-05T13:18:35;2.83;;;0.93;;
17763;SDS011;22245;52.832;13.816;2023-03-05T13:22:01;2.53;;;0.80;;
17763;SDS011;22245;52.832;13.816;2023-03-05T13:25:30;2.83;;;0.90;;
17763;SDS011;22245;52.832;13.816;2023-03-05T13:29:10;3.13;;;0.70;;
17763;SDS011;22245;52.832;13.816;2023-03-05T13:32:33;3.00;;;0.80;;
17763;SDS011;22245;52.832;13.816;2023-03-05T13:35:55;3.90;;;0.90;;
17763;SDS011;22245;52.832;13.816;2023-03-05T13:39:17;2.87;;;1.00;;
17763;SDS011;22245;52.832;13.816;2023-03-05T13:42:42;2.60;;;1.20;;
17763;SDS011;22245;52.832;13.816;2023-03-05T13:46:05;4.57;;;1.50;;
17763;SDS011;22245;52.832;13.816;2023-03-05T13:49:26;1.43;;;0.80;;
17763;SDS011;22245;52.832;13.816;2023-03-05T13:52:48;5.00;;;1.00;;
17763;SDS011;22245;52.832;13.816;2023-03-05T13:56:16;5.60;;;1.30;;
17763;SDS011;22245;52.832;13.816;2023-03-05T13:59:40;3.13;;;1.00;;
17763;SDS011;22245;52.832;13.816;2023-03-05T14:03:19;2.40;;;1.50;;
17763;SDS011;22245;52.832;13.816;2023-03-05T14:06:45;3.53;;;1.13;;
17763;SDS011;22245;52.832;13.816;2023-03-05T14:10:22;2.23;;;0.80;;
17763;SDS011;22245;52.832;13.816;2023-03-05T14:13:49;4.30;;;1.27;;
17763;SDS011;22245;52.832;13.816;2023-03-05T14:17:29;2.33;;;0.90;;
17763;SDS011;22245;52.832;13.816;2023-03-05T14:21:00;4.87;;;1.10;;
17763;SDS011;22245;52.832;13.816;2023-03-05T14:24:25;3.87;;;1.27;;
17763;SDS011;22245;52.832;13.816;2023-03-05T14:27:50;4.10;;;1.30;;
17763;SDS011;22245;52.832;13.816;2023-03-05T14:31:12;6.43;;;1.50;;
17763;SDS011;22245;52.832;13.816;2023-03-05T14:34:38;2.50;;;1.17;;
17763;SDS011;22245;52.832;13.816;2023-03-05T14:38:03;3.90;;;1.30;;
17763;SDS011;22245;52.832;13.816;2023-03-05T14:41:32;3.13;;;1.20;;
17763;SDS011;22245;52.832;13.816;2023-03-05T14:44:57;5.37;;;1.70;;
17763;SDS011;22245;52.832;13.816;2023-03-05T14:48:20;3.27;;;0.97;;
17763;SDS011;22245;52.832;13.816;2023-03-05T14:51:42;2.43;;;1.10;;
17763;SDS011;22245;52.832;13.816;2023-03-05T14:55:12;6.40;;;1.40;;
17763;SDS011;22245;52.832;13.816;2023-03-05T14:58:35;4.53;;;1.67;;
17763;SDS011;22245;52.832;13.816;2023-03-05T15:01:56;3.97;;;1.10;;
17763;SDS011;22245;52.832;13.816;2023-03-05T15:05:18;2.83;;;1.40;;
17763;SDS011;22245;52.832;13.816;2023-03-05T15:08:41;6.37;;;2.17;;
17763;SDS011;22245;52.832;13.816;2023-03-05T15:12:05;7.33;;;1.70;;
17763;SDS011;22245;52.832;13.816;2023-03-05T15:15:26;4.83;;;1.63;;
17763;SDS011;22245;52.832;13.816;2023-03-05T15:18:48;4.67;;;1.70;;
17763;SDS011;22245;52.832;13.816;2023-03-05T15:22:10;2.90;;;1.60;;
17763;SDS011;22245;52.832;13.816;2023-03-05T15:25:33;3.07;;;1.10;;
17763;SDS011;22245;52.832;13.816;2023-03-05T15:28:56;3.03;;;1.40;;
17763;SDS011;22245;52.832;13.816;2023-03-05T15:32:18;3.47;;;1.23;;
17763;SDS011;22245;52.832;13.816;2023-03-05T15:35:40;2.73;;;1.33;;
17763;SDS011;22245;52.832;13.816;2023-03-05T15:39:02;4.27;;;1.60;;
17763;SDS011;22245;52.832;13.816;2023-03-05T15:42:24;4.23;;;2.10;;
17763;SDS011;22245;52.832;13.816;2023-03-05T15:45:47;7.70;;;1.50;;
17763;SDS011;22245;52.832;13.816;2023-03-05T15:49:09;4.60;;;1.20;;
17763;SDS011;22245;52.832;13.816;2023-03-05T15:52:30;5.83;;;1.60;;
17763;SDS011;22245;52.832;13.816;2023-03-05T15:55:52;4.03;;;1.40;;
17763;SDS011;22245;52.832;13.816;2023-03-05T15:59:14;4.53;;;1.70;;
17763;SDS011;22245;52.832;13.816;2023-03-05T16:02:38;3.53;;;1.30;;
17763;SDS011;22245;52.832;13.816;2023-03-05T16:06:00;5.00;;;1.63;;
17763;SDS011;22245;52.832;13.816;2023-03-05T16:09:24;3.73;;;1.63;;
17763;SDS011;22245;52.832;13.816;2023-03-05T16:12:52;2.53;;;1.40;;
17763;SDS011;22245;52.832;13.816;2023-03-05T16:16:16;4.50;;;1.73;;
17763;SDS011;22245;52.832;13.816;2023-03-05T16:19:40;2.73;;;1.23;;
17763;SDS011;22245;52.832;13.816;2023-03-05T16:23:04;2.47;;;1.10;;
17763;SDS011;22245;52.832;13.816;2023-03-05T16:26:26;3.83;;;1.33;;
17763;SDS011;22245;52.832;13.816;2023-03-05T16:29:48;3.10;;;1.37;;
17763;SDS011;22245;52.832;13.816;2023-03-05T16:33:10;7.53;;;1.50;;
17763;SDS011;22245;52.832;13.816;2023-03-05T16:36:33;3.57;;;1.60;;
17763;SDS011;22245;52.832;13.816;2023-03-05T16:39:56;4.43;;;2.07;;
17763;SDS011;22245;52.832;13.816;2023-03-05T16:43:19;6.20;;;2.37;;
17763;SDS011;22245;52.832;13.816;2023-03-05T16:46:41;8.37;;;2.80;;
17763;SDS011;22245;52.832;13.816;2023-03-05T16:50:08;4.77;;;1.87;;
17763;SDS011;22245;52.832;13.816;2023-03-05T16:53:33;6.67;;;2.30;;
17763;SDS011;22245;52.832;13.816;2023-03-05T16:56:55;10.33;;;3.07;;
17763;SDS011;22245;52.832;13.816;2023-03-05T17:00:19;5.60;;;1.93;;
17763;SDS011;22245;52.832;13.816;2023-03-05T17:03:43;8.30;;;2.70;;
17763;SDS011;22245;52.832;13.816;2023-03-05T17:07:06;7.77;;;2.60;;
17763;SDS011;22245;52.832;13.816;2023-03-05T17:10:30;8.00;;;2.60;;
17763;SDS011;22245;52.832;13.816;2023-03-05T17:13:52;5.13;;;2.00;;
17763;SDS011;22245;52.832;13.816;2023-03-05T17:17:14;5.53;;;2.17;;
17763;SDS011;22245;52.832;13.816;2023-03-05T17:20:35;5.30;;;2.10;;
17763;SDS011;22245;52.832;13.816;2023-03-05T17:23:57;4.97;;;2.47;;
17763;SDS011;22245;52.832;13.816;2023-03-05T17:27:21;5.93;;;2.13;;
17763;SDS011;22245;52.832;13.816;2023-03-05T17:30:43;4.40;;;2.00;;
17763;SDS011;22245;52.832;13.816;2023-03-05T17:34:04;8.20;;;1.63;;
17763;SDS011;22245;52.832;13.816;2023-03-05T17:37:26;2.67;;;1.43;;
17763;SDS011;22245;52.832;13.816;2023-03-05T17:40:49;5.23;;;1.20;;
17763;SDS011;22245;52.832;13.816;2023-03-05T17:44:12;6.60;;;1.90;;
17763;SDS011;22245;52.832;13.816;2023-03-05T17:47:34;3.37;;;1.47;;
17763;SDS011;22245;52.832;13.816;2023-03-05T17:50:57;3.60;;;1.37;;
17763;SDS011;22245;52.832;13.816;2023-03-05T17:54:18;2.43;;;1.27;;
17763;SDS011;22245;52.832;13.816;2023-03-05T17:57:41;3.23;;;1.10;;
17763;SDS011;22245;52.832;13.816;2023-03-05T18:01:05;2.80;;;1.50;;
17763;SDS011;22245;52.832;13.816;2023-03-05T18:04:27;2.90;;;1.47;;
17763;SDS011;22245;52.832;13.816;2023-03-05T18:07:50;3.43;;;1.40;;
17763;SDS011;22245;52.832;13.816;2023-03-05T18:11:12;3.57;;;1.40;;
17763;SDS011;22245;52.832;13.816;2023-03-05T18:14:34;2.47;;;1.20;;
17763;SDS011;22245;52.832;13.816;2023-03-05T18:17:57;5.37;;;1.40;;
17763;SDS011;22245;52.832;13.816;2023-03-05T18:21:19;4.47;;;1.33;;
17763;SDS011;22245;52.832;13.816;2023-03-05T18:24:43;6.20;;;1.90;;
17763;SDS011;22245;52.832;13.816;2023-03-05T18:28:05;4.63;;;2.53;;
17763;SDS011;22245;52.832;13.816;2023-03-05T18:31:28;7.30;;;3.70;;
17763;SDS011;22245;52.832;13.816;2023-03-05T18:34:51;4.50;;;2.30;;
17763;SDS011;22245;52.832;13.816;2023-03-05T18:38:13;5.23;;;2.07;;
17763;SDS011;22245;52.832;13.816;2023-03-05T18:41:35;15.30;;;6.57;;
17763;SDS011;22245;52.832;13.816;2023-03-05T18:44:57;6.60;;;3.10;;
17763;SDS011;22245;52.832;13.816;2023-03-05T18:48:20;8.70;;;2.60;;
17763;SDS011;22245;52.832;13.816;2023-03-05T18:51:44;4.17;;;1.90;;
17763;SDS011;22245;52.832;13.816;2023-03-05T18:55:07;4.70;;;2.20;;
17763;SDS011;22245;52.832;13.816;2023-03-05T18:58:32;3.03;;;1.63;;
17763;SDS011;22245;52.832;13.816;2023-03-05T19:01:54;3.73;;;1.73;;
17763;SDS011;22245;52.832;13.816;2023-03-05T19:05:16;3.87;;;1.70;;
17763;SDS011;22245;52.832;13.816;2023-03-05T19:08:41;4.53;;;1.67;;
17763;SDS011;22245;52.832;13.816;2023-03-05T19:12:03;9.00;;;2.60;;
17763;SDS011;22245;52.832;13.816;2023-03-05T19:15:25;5.10;;;1.77;;
17763;SDS011;22245;52.832;13.816;2023-03-05T19:18:47;3.53;;;1.50;;
17763;SDS011;22245;52.832;13.816;2023-03-05T19:22:18;2.07;;;1.17;;
17763;SDS011;22245;52.832;13.816;2023-03-05T19:25:42;2.83;;;1.47;;
17763;SDS011;22245;52.832;13.816;2023-03-05T19:29:04;3.23;;;1.40;;
17763;SDS011;22245;52.832;13.816;2023-03-05T19:32:26;3.00;;;1.43;;
17763;SDS011;22245;52.832;13.816;2023-03-05T19:35:48;3.17;;;1.47;;
17763;SDS011;22245;52.832;13.816;2023-03-05T19:39:10;5.63;;;2.00;;
17763;SDS011;22245;52.832;13.816;2023-03-05T19:42:33;5.30;;;1.97;;
17763;SDS011;22245;52.832;13.816;2023-03-05T19:45:59;4.97;;;1.37;;
17763;SDS011;22245;52.832;13.816;2023-03-05T19:49:21;8.03;;;1.40;;
17763;SDS011;22245;52.832;13.816;2023-03-05T19:52:44;2.83;;;1.10;;
17763;SDS011;22245;52.832;13.816;2023-03-05T19:56:06;3.87;;;1.30;;
17763;SDS011;22245;52.832;13.816;2023-03-05T19:59:30;5.97;;;2.03;;
17763;SDS011;22245;52.832;13.816;2023-03-05T20:02:51;4.57;;;2.30;;
17763;SDS011;22245;52.832;13.816;2023-03-05T20:06:13;3.87;;;1.47;;
17763;SDS011;22245;52.832;13.816;2023-03-05T20:09:35;3.47;;;1.60;;
17763;SDS011;22245;52.832;13.816;2023-03-05T20:12:57;5.17;;;1.53;;
17763;SDS011;22245;52.832;13.816;2023-03-05T20:16:21;9.10;;;3.23;;